Minerva Libra — SVAA7 — position and weather

sailwx.info

Track history (hours):
 
Tides and Currents Weather Stations Pressure Air Temp Water Temp Dewpoint Dewpoint Depression Visibility Wind Speed Wind Dir Waves Ship Positions

Minerva Libra

Last reported at 2015-Jul-05 20:11 UTC. Time now 2015-Jul-05 21:03 UTC.
Position N 52°09' E 003°42'.

Length 250 m; draft 7 m.

Type: Tanker. MMSI: 240766000.

Date/timePositionNaut miles runAvg speedWind from/ knotsBaromVisibWave heightAir tempDewpointWater temp
2015-Jul-05 20:11N 52°09' E 003°42'0 0.0
2015-Jul-05 19:32N 52°09' E 003°42'0 0.1
2015-Jul-05 18:32N 52°09' E 003°42'0 0.0
2015-Jul-05 17:23N 52°09' E 003°42'0 0.0
2015-Jul-05 16:29N 52°09' E 003°42'0 0.0
2015-Jul-05 15:32N 52°09' E 003°42'0 0.2
2015-Jul-05 14:17N 52°09' E 003°42'0 0.0
2015-Jul-05 13:32N 52°09' E 003°42'0 0.0
2015-Jul-05 12:32N 52°09' E 003°42'0 0.1
2015-Jul-05 11:29N 52°09' E 003°41'0 0.0
2015-Jul-05 10:29N 52°09' E 003°41'0 0.0
2015-Jul-05 09:32N 52°09' E 003°41'0 0.1
2015-Jul-05 08:32N 52°09' E 003°42'0 0.2
2015-Jul-05 07:29N 52°09' E 003°42'0 0.1
2015-Jul-05 06:32N 52°09' E 003°42'0 0.0
2015-Jul-05 05:32N 52°09' E 003°42'0 0.0
2015-Jul-05 04:29N 52°09' E 003°42'0 0.0
2015-Jul-05 03:29N 52°09' E 003°42'0 0.0
2015-Jul-05 02:32N 52°09' E 003°42'0 0.2
2015-Jul-05 01:20N 52°09' E 003°42'0 0.2
2015-Jul-05 00:29N 52°09' E 003°41'0 0.0
2015-Jul-04 23:23N 52°09' E 003°41'0 0.0
2015-Jul-04 22:29N 52°09' E 003°41'0 0.1
2015-Jul-04 21:32N 52°09' E 003°41'0 0.2
2015-Jul-04 20:17N 52°09' E 003°42'0 0.1
2015-Jul-04 19:32N 52°09' E 003°42'0 0.0
2015-Jul-04 18:32N 52°09' E 003°42'2 1.8
2015-Jul-04 17:33N 52°09' E 003°44'9 8.5
2015-Jul-04 16:33N 52°03' E 003°55'8 7.8
2015-Jul-04 15:33N 51°58' E 004°04'0 0.1
2015-Jul-04 14:31N 51°58' E 004°04'0 0.0
2015-Jul-04 13:31N 51°58' E 004°04'0 0.0
2015-Jul-04 12:31N 51°58' E 004°04'0 0.0
2015-Jul-04 11:31N 51°58' E 004°04'0 0.0
2015-Jul-04 10:31N 51°58' E 004°04'0 0.0
2015-Jul-04 09:31N 51°58' E 004°04'0 0.0
2015-Jul-04 08:28N 51°58' E 004°04'0 0.0
2015-Jul-04 07:31N 51°58' E 004°04'0 0.0
2015-Jul-04 06:31N 51°58' E 004°04'0 0.0
2015-Jul-04 05:31N 51°58' E 004°04'0 0.0
2015-Jul-04 04:31N 51°58' E 004°04'0 0.0
2015-Jul-04 03:31N 51°58' E 004°04'0 0.0
2015-Jul-04 02:31N 51°58' E 004°04'0 0.0
2015-Jul-04 01:31N 51°58' E 004°04'0 0.0
2015-Jul-04 00:31N 51°58' E 004°04'0 0.0
2015-Jul-03 23:31N 51°58' E 004°04'0 0.0
2015-Jul-03 22:31N 51°58' E 004°04'0 0.0
2015-Jul-03 21:31N 51°58' E 004°04'0 0.0
2015-Jul-03 20:31N 51°58' E 004°04'0 0.0
2015-Jul-03 19:31N 51°58' E 004°04'0 0.0
2015-Jul-03 18:31N 51°58' E 004°04'0 0.0
2015-Jul-03 17:31N 51°58' E 004°04'0 0.0
2015-Jul-03 16:31N 51°58' E 004°04'0 0.0
2015-Jul-03 15:31N 51°58' E 004°04'0 0.0
2015-Jul-03 14:31N 51°58' E 004°04'0 0.0
2015-Jul-03 13:31N 51°58' E 004°04'0 0.0
2015-Jul-03 12:31N 51°58' E 004°04'0 0.0
2015-Jul-03 11:31N 51°58' E 004°04'0 0.0
2015-Jul-03 10:31N 51°58' E 004°04'0 0.0
2015-Jul-03 09:31N 51°58' E 004°04'0 0.0
2015-Jul-03 08:31N 51°58' E 004°04'0 0.0
2015-Jul-03 07:31N 51°58' E 004°04'0 0.0
2015-Jul-03 06:31N 51°58' E 004°04'0 0.0
2015-Jul-03 05:31N 51°58' E 004°04'0 0.0
2015-Jul-03 04:31N 51°58' E 004°04'0 0.0
2015-Jul-03 03:31N 51°58' E 004°04'0 0.0
2015-Jul-03 02:31N 51°58' E 004°04'0 0.0
2015-Jul-03 01:31N 51°58' E 004°04'0 0.0
2015-Jul-03 00:31N 51°58' E 004°04'0 0.0
2015-Jul-02 23:31N 51°58' E 004°04'0 0.0
2015-Jul-02 22:31N 51°58' E 004°04'1 0.9
2015-Jul-02 21:33N 51°59' E 004°04'10 9.5
2015-Jul-02 20:33N 52°01' E 003°49'8 7.6
2015-Jul-02 19:33N 52°03' E 003°37'6 5.6
2015-Jul-02 18:33N 52°07' E 003°31'2 2.4
2015-Jul-02 17:33N 52°09' E 003°33'0 0.0
2015-Jul-02 16:33N 52°09' E 003°33'0 0.0
2015-Jul-02 15:33N 52°09' E 003°33'0 0.0
2015-Jul-02 14:33N 52°09' E 003°33'0 0.1
2015-Jul-02 13:24N 52°09' E 003°34'0 0.1
2015-Jul-02 10:18N 52°09' E 003°33'0 0.0
2015-Jul-02 09:15N 52°09' E 003°33'0 0.0
2015-Jul-01 10:15N 52°09' E 003°33'0 0.0
2015-Jul-01 09:27N 52°09' E 003°33'0 0.0
2015-Jul-01 08:30N 52°09' E 003°33'0 0.0
2015-Jul-01 07:33N 52°09' E 003°33'0 0.0
2015-Jul-01 06:33N 52°09' E 003°33'0 0.1
2015-Jul-01 05:33N 52°09' E 003°33'0 0.2
2015-Jul-01 04:30N 52°09' E 003°33'0 0.1
2015-Jul-01 03:24N 52°09' E 003°33'0 0.0
2015-Jun-30 23:21N 52°09' E 003°33'0 0.3
2015-Jun-30 22:33N 52°09' E 003°33'0 0.0
2015-Jun-30 21:24N 52°09' E 003°33'0 0.0
2015-Jun-30 17:27N 52°09' E 003°33'0 0.2
2015-Jun-30 16:24N 52°09' E 003°33'0 0.1
2015-Jun-30 15:30N 52°09' E 003°33'0 0.0
2015-Jun-30 08:27N 52°09' E 003°33'0 0.0
2015-Jun-30 07:30N 52°09' E 003°33'0 0.0
2015-Jun-30 06:33N 52°09' E 003°33'0 0.0
2015-Jun-30 05:33N 52°09' E 003°33'0 0.2
2015-Jun-30 04:33N 52°09' E 003°33'0 0.2
2015-Jun-30 03:33N 52°09' E 003°33'0 0.0
2015-Jun-30 02:33N 52°09' E 003°33'0 0.0
2015-Jun-30 01:33N 52°09' E 003°33'0 0.0
2015-Jun-30 00:30N 52°09' E 003°33'0 0.1
2015-Jun-29 23:33N 52°09' E 003°34'0 0.2
2015-Jun-29 22:30N 52°09' E 003°34'0 0.1
2015-Jun-29 21:33N 52°09' E 003°33'0 0.0
2015-Jun-29 20:33N 52°09' E 003°33'0 0.0
2015-Jun-29 19:33N 52°09' E 003°33'0 0.0
2015-Jun-29 18:33N 52°09' E 003°33'0 0.0
2015-Jun-29 17:27N 52°09' E 003°33'0 0.3
2015-Jun-29 16:27N 52°09' E 003°33'0 0.0
2015-Jun-29 15:33N 52°09' E 003°33'0 0.0
2015-Jun-29 14:30N 52°09' E 003°33'0 0.0
2015-Jun-29 13:33N 52°09' E 003°33'0 0.0
2015-Jun-29 12:27N 52°09' E 003°33'0 0.0
2015-Jun-29 11:33N 52°09' E 003°34'1 0.7
2015-Jun-29 09:34N 52°09' E 003°31'7 7.0
2015-Jun-29 08:33N 52°12' E 003°21'1312.6
2015-Jun-29 07:33N 52°24' E 003°15'1313.5
2015-Jun-29 06:33N 52°37' E 003°14'1312.8
2015-Jun-29 05:31N 52°50' E 003°15'1712.7
2015-Jun-29 04:12N 53°06' E 003°21'  
Track history (hours):
 
Tides and Currents Weather Stations Pressure Air Temp Water Temp Dewpoint Dewpoint Depression Visibility Wind Speed Wind Dir Waves Ship Positions

Minerva Libra

Last reported at 2015-Jul-05 20:11 UTC. Time now 2015-Jul-05 21:04 UTC.
Position N 52°09' E 003°42'.

Length 250 m; draft 7 m.

Type: Tanker. MMSI: 240766000.

Date/timePositionNaut miles runAvg speedWind from/ knotsBaromVisibWave heightAir tempDewpointWater temp
2015-Jul-05 20:11N 52°09' E 003°42'0 0.0
2015-Jul-05 19:32N 52°09' E 003°42'0 0.1
2015-Jul-05 18:32N 52°09' E 003°42'0 0.0
2015-Jul-05 17:23N 52°09' E 003°42'0 0.0
2015-Jul-05 16:29N 52°09' E 003°42'0 0.0
2015-Jul-05 15:32N 52°09' E 003°42'0 0.2
2015-Jul-05 14:17N 52°09' E 003°42'0 0.0
2015-Jul-05 13:32N 52°09' E 003°42'0 0.0
2015-Jul-05 12:32N 52°09' E 003°42'0 0.1
2015-Jul-05 11:29N 52°09' E 003°41'0 0.0
2015-Jul-05 10:29N 52°09' E 003°41'0 0.0
2015-Jul-05 09:32N 52°09' E 003°41'0 0.1
2015-Jul-05 08:32N 52°09' E 003°42'0 0.2
2015-Jul-05 07:29N 52°09' E 003°42'0 0.1
2015-Jul-05 06:32N 52°09' E 003°42'0 0.0
2015-Jul-05 05:32N 52°09' E 003°42'0 0.0
2015-Jul-05 04:29N 52°09' E 003°42'0 0.0
2015-Jul-05 03:29N 52°09' E 003°42'0 0.0
2015-Jul-05 02:32N 52°09' E 003°42'0 0.2
2015-Jul-05 01:20N 52°09' E 003°42'0 0.2
2015-Jul-05 00:29N 52°09' E 003°41'0 0.0
2015-Jul-04 23:23N 52°09' E 003°41'0 0.0
2015-Jul-04 22:29N 52°09' E 003°41'0 0.1
2015-Jul-04 21:32N 52°09' E 003°41'0 0.2
2015-Jul-04 20:17N 52°09' E 003°42'0 0.1
2015-Jul-04 19:32N 52°09' E 003°42'0 0.0
2015-Jul-04 18:32N 52°09' E 003°42'2 1.8
2015-Jul-04 17:33N 52°09' E 003°44'9 8.5
2015-Jul-04 16:33N 52°03' E 003°55'8 7.8
2015-Jul-04 15:33N 51°58' E 004°04'0 0.1
2015-Jul-04 14:31N 51°58' E 004°04'0 0.0
2015-Jul-04 13:31N 51°58' E 004°04'0 0.0
2015-Jul-04 12:31N 51°58' E 004°04'0 0.0
2015-Jul-04 11:31N 51°58' E 004°04'0 0.0
2015-Jul-04 10:31N 51°58' E 004°04'0 0.0
2015-Jul-04 09:31N 51°58' E 004°04'0 0.0
2015-Jul-04 08:28N 51°58' E 004°04'0 0.0
2015-Jul-04 07:31N 51°58' E 004°04'0 0.0
2015-Jul-04 06:31N 51°58' E 004°04'0 0.0
2015-Jul-04 05:31N 51°58' E 004°04'0 0.0
2015-Jul-04 04:31N 51°58' E 004°04'0 0.0
2015-Jul-04 03:31N 51°58' E 004°04'0 0.0
2015-Jul-04 02:31N 51°58' E 004°04'0 0.0
2015-Jul-04 01:31N 51°58' E 004°04'0 0.0
2015-Jul-04 00:31N 51°58' E 004°04'0 0.0
2015-Jul-03 23:31N 51°58' E 004°04'0 0.0
2015-Jul-03 22:31N 51°58' E 004°04'0 0.0
2015-Jul-03 21:31N 51°58' E 004°04'0 0.0
2015-Jul-03 20:31N 51°58' E 004°04'0 0.0
2015-Jul-03 19:31N 51°58' E 004°04'0 0.0
2015-Jul-03 18:31N 51°58' E 004°04'0 0.0
2015-Jul-03 17:31N 51°58' E 004°04'0 0.0
2015-Jul-03 16:31N 51°58' E 004°04'0 0.0
2015-Jul-03 15:31N 51°58' E 004°04'0 0.0
2015-Jul-03 14:31N 51°58' E 004°04'0 0.0
2015-Jul-03 13:31N 51°58' E 004°04'0 0.0
2015-Jul-03 12:31N 51°58' E 004°04'0 0.0
2015-Jul-03 11:31N 51°58' E 004°04'0 0.0
2015-Jul-03 10:31N 51°58' E 004°04'0 0.0
2015-Jul-03 09:31N 51°58' E 004°04'0 0.0
2015-Jul-03 08:31N 51°58' E 004°04'0 0.0
2015-Jul-03 07:31N 51°58' E 004°04'0 0.0
2015-Jul-03 06:31N 51°58' E 004°04'0 0.0
2015-Jul-03 05:31N 51°58' E 004°04'0 0.0
2015-Jul-03 04:31N 51°58' E 004°04'0 0.0
2015-Jul-03 03:31N 51°58' E 004°04'0 0.0
2015-Jul-03 02:31N 51°58' E 004°04'0 0.0
2015-Jul-03 01:31N 51°58' E 004°04'0 0.0
2015-Jul-03 00:31N 51°58' E 004°04'0 0.0
2015-Jul-02 23:31N 51°58' E 004°04'0 0.0
2015-Jul-02 22:31N 51°58' E 004°04'1 0.9
2015-Jul-02 21:33N 51°59' E 004°04'10 9.5
2015-Jul-02 20:33N 52°01' E 003°49'8 7.6
2015-Jul-02 19:33N 52°03' E 003°37'6 5.6
2015-Jul-02 18:33N 52°07' E 003°31'2 2.4
2015-Jul-02 17:33N 52°09' E 003°33'0 0.0
2015-Jul-02 16:33N 52°09' E 003°33'0 0.0
2015-Jul-02 15:33N 52°09' E 003°33'0 0.0
2015-Jul-02 14:33N 52°09' E 003°33'0 0.1
2015-Jul-02 13:24N 52°09' E 003°34'0 0.1
2015-Jul-02 10:18N 52°09' E 003°33'0 0.0
2015-Jul-02 09:15N 52°09' E 003°33'0 0.0
2015-Jul-01 10:15N 52°09' E 003°33'0 0.0
2015-Jul-01 09:27N 52°09' E 003°33'0 0.0
2015-Jul-01 08:30N 52°09' E 003°33'0 0.0
2015-Jul-01 07:33N 52°09' E 003°33'0 0.0
2015-Jul-01 06:33N 52°09' E 003°33'0 0.1
2015-Jul-01 05:33N 52°09' E 003°33'0 0.2
2015-Jul-01 04:30N 52°09' E 003°33'0 0.1
2015-Jul-01 03:24N 52°09' E 003°33'0 0.0
2015-Jun-30 23:21N 52°09' E 003°33'0 0.3
2015-Jun-30 22:33N 52°09' E 003°33'0 0.0
2015-Jun-30 21:24N 52°09' E 003°33'0 0.0
2015-Jun-30 17:27N 52°09' E 003°33'0 0.2
2015-Jun-30 16:24N 52°09' E 003°33'0 0.1
2015-Jun-30 15:30N 52°09' E 003°33'0 0.0
2015-Jun-30 08:27N 52°09' E 003°33'0 0.0
2015-Jun-30 07:30N 52°09' E 003°33'0 0.0
2015-Jun-30 06:33N 52°09' E 003°33'0 0.0
2015-Jun-30 05:33N 52°09' E 003°33'0 0.2
2015-Jun-30 04:33N 52°09' E 003°33'0 0.2
2015-Jun-30 03:33N 52°09' E 003°33'0 0.0
2015-Jun-30 02:33N 52°09' E 003°33'0 0.0
2015-Jun-30 01:33N 52°09' E 003°33'0 0.0
2015-Jun-30 00:30N 52°09' E 003°33'0 0.1
2015-Jun-29 23:33N 52°09' E 003°34'0 0.2
2015-Jun-29 22:30N 52°09' E 003°34'0 0.1
2015-Jun-29 21:33N 52°09' E 003°33'0 0.0
2015-Jun-29 20:33N 52°09' E 003°33'0 0.0
2015-Jun-29 19:33N 52°09' E 003°33'0 0.0
2015-Jun-29 18:33N 52°09' E 003°33'0 0.0
2015-Jun-29 17:27N 52°09' E 003°33'0 0.3
2015-Jun-29 16:27N 52°09' E 003°33'0 0.0
2015-Jun-29 15:33N 52°09' E 003°33'0 0.0
2015-Jun-29 14:30N 52°09' E 003°33'0 0.0
2015-Jun-29 13:33N 52°09' E 003°33'0 0.0
2015-Jun-29 12:27N 52°09' E 003°33'0 0.0
2015-Jun-29 11:33N 52°09' E 003°34'1 0.7
2015-Jun-29 09:34N 52°09' E 003°31'7 7.0
2015-Jun-29 08:33N 52°12' E 003°21'1312.6
2015-Jun-29 07:33N 52°24' E 003°15'1313.5
2015-Jun-29 06:33N 52°37' E 003°14'1312.8
2015-Jun-29 05:31N 52°50' E 003°15'1712.7
2015-Jun-29 04:12N 53°06' E 003°21'  

Dump ship's entire track history